Time,TemperatureF,DewpointF,PressureIn,WindDirection,WindDirectionDegrees,WindSpeedMPH,WindSpeedGustMPH,Humidity,HourlyPrecipIn,Conditions,Clouds,dailyrainin,SoftwareType,DateUTC
2013-07-29 00:12:00,62.0,56.0,-100.00,North,5,0.0,0.0,81,-99.99,,,-99.99,,2013-07-29 05:12:00,
2013-07-29 00:22:00,62.0,56.0,-100.00,North,5,0.0,0.0,81,-99.99,,,-99.99,,2013-07-29 05:22:00,
2013-07-29 00:53:00,62.0,56.0,-100.00,North,10,0.0,2.0,83,-99.99,,,-99.99,,2013-07-29 05:53:00,
2013-07-29 01:02:00,62.0,57.0,-100.00,North,10,0.0,0.0,84,-99.99,,,-99.99,,2013-07-29 06:02:00,
2013-07-29 01:12:00,61.0,56.0,-100.00,North,10,2.0,2.0,84,-99.99,,,-99.99,,2013-07-29 06:12:00,
2013-07-29 01:22:00,61.0,56.0,-100.00,North,10,2.0,2.0,84,-99.99,,,-99.99,,2013-07-29 06:22:00,
2013-07-29 01:43:00,61.0,57.0,-100.00,North,10,1.0,2.0,86,-99.99,,,-99.99,,2013-07-29 06:43:00,
2013-07-29 01:52:00,61.0,57.0,-100.00,North,10,1.0,2.0,86,-99.99,,,-99.99,,2013-07-29 06:52:00,
2013-07-29 02:12:00,60.0,56.0,-100.00,North,10,0.0,3.0,88,-99.99,,,-99.99,,2013-07-29 07:12:00,
2013-07-29 02:22:00,60.0,56.0,-100.00,North,10,0.0,3.0,88,-99.99,,,-99.99,,2013-07-29 07:22:00,
2013-07-29 02:43:00,60.0,56.0,-100.00,North,10,2.0,2.0,89,-99.99,,,-99.99,,2013-07-29 07:43:00,
2013-07-29 02:53:00,60.0,56.0,-100.00,North,10,2.0,2.0,89,-99.99,,,-99.99,,2013-07-29 07:53:00,
2013-07-29 03:12:00,59.0,56.0,-100.00,North,10,0.0,0.0,90,-99.99,,,-99.99,,2013-07-29 08:12:00,
2013-07-29 03:22:00,59.0,56.0,-100.00,North,10,0.0,0.0,90,-99.99,,,-99.99,,2013-07-29 08:22:00,
2013-07-29 03:42:00,58.0,56.0,-100.00,North,10,0.0,0.0,91,-99.99,,,-99.99,,2013-07-29 08:42:00,
2013-07-29 03:52:00,58.0,56.0,-100.00,North,10,0.0,0.0,91,-99.99,,,-99.99,,2013-07-29 08:52:00,
2013-07-29 04:12:00,59.0,56.0,-100.00,North,10,0.0,1.0,92,-99.99,,,-99.99,,2013-07-29 09:12:00,
2013-07-29 04:22:00,59.0,56.0,-100.00,North,10,0.0,1.0,92,-99.99,,,-99.99,,2013-07-29 09:22:00,
2013-07-29 04:33:00,58.0,56.0,-100.00,North,10,0.0,0.0,92,-99.99,,,-99.99,,2013-07-29 09:33:00,
2013-07-29 04:43:00,58.0,56.0,-100.00,North,10,0.0,0.0,92,-99.99,,,-99.99,,2013-07-29 09:43:00,
2013-07-29 04:53:00,58.0,56.0,-100.00,North,10,0.0,0.0,92,-99.99,,,-99.99,,2013-07-29 09:53:00,
2013-07-29 05:25:00,58.0,56.0,-100.00,NNE,15,0.0,1.0,92,-99.99,,,-99.99,,2013-07-29 10:25:00,
2013-07-29 05:37:00,57.0,55.0,-100.00,NNE,15,1.0,1.0,93,-99.99,,,-99.99,,2013-07-29 10:37:00,
2013-07-29 05:48:00,56.0,54.0,-100.00,NNE,15,4.0,6.0,93,-99.99,,,-99.99,,2013-07-29 10:48:00,
2013-07-29 05:55:00,56.0,54.0,-100.00,NNE,15,4.0,6.0,93,-99.99,,,-99.99,,2013-07-29 10:55:00,
2013-07-29 06:24:00,56.0,54.0,-100.00,NNE,20,1.0,4.0,93,-99.99,,,-99.99,,2013-07-29 11:24:00,
2013-07-29 06:44:00,57.0,55.0,-100.00,NNE,30,0.0,3.0,93,-99.99,,,-99.99,,2013-07-29 11:44:00,
2013-07-29 06:59:00,57.0,55.0,-100.00,NNE,30,0.0,3.0,93,-99.99,,,-99.99,,2013-07-29 11:59:00,
2013-07-29 07:58:00,61.0,59.0,-100.00,North,5,0.0,1.0,93,-99.99,,,-99.99,,2013-07-29 12:58:00,
2013-07-29 08:28:00,61.0,58.0,-100.00,North,5,2.0,4.0,89,-99.99,,,-99.99,,2013-07-29 13:28:00,
2013-07-29 08:44:00,64.0,59.0,-100.00,North,5,1.0,3.0,82,-99.99,,,-99.99,,2013-07-29 13:44:00,
2013-07-29 08:57:00,64.0,59.0,-100.00,North,5,1.0,3.0,82,-99.99,,,-99.99,,2013-07-29 13:57:00,
2013-07-29 09:28:00,68.0,61.0,-100.00,North,5,1.0,3.0,78,-99.99,,,-99.99,,2013-07-29 14:28:00,
2013-07-29 09:57:00,69.0,59.0,-100.00,North,5,2.0,5.0,70,-99.99,,,-99.99,,2013-07-29 14:57:00,
2013-07-29 10:08:00,69.0,56.0,-100.00,North,5,4.0,6.0,63,-99.99,,,-99.99,,2013-07-29 15:08:00,
2013-07-29 10:15:00,70.0,54.0,-100.00,North,5,2.0,6.0,56,-99.99,,,-99.99,,2013-07-29 15:15:00,
2013-07-29 10:24:00,70.0,54.0,-100.00,North,5,2.0,6.0,56,-99.99,,,-99.99,,2013-07-29 15:24:00,
2013-07-29 11:13:00,75.0,53.0,-100.00,North,5,4.0,8.0,47,-99.99,,,-99.99,,2013-07-29 16:13:00,
2013-07-29 11:24:00,75.0,53.0,-100.00,North,5,4.0,8.0,47,-99.99,,,-99.99,,2013-07-29 16:24:00,
2013-07-29 11:57:00,76.0,52.0,-100.00,North,5,5.0,8.0,43,-99.99,,,-99.99,,2013-07-29 16:57:00,
2013-07-29 12:08:00,76.0,53.0,-100.00,North,5,4.0,6.0,44,-99.99,,,-99.99,,2013-07-29 17:08:00,
2013-07-29 12:13:00,76.0,53.0,-100.00,North,5,2.0,5.0,44,-99.99,,,-99.99,,2013-07-29 17:13:00,
2013-07-29 12:24:00,76.0,53.0,-100.00,North,5,2.0,5.0,44,-99.99,,,-99.99,,2013-07-29 17:24:00,
2013-07-29 13:06:00,79.0,52.0,-100.00,North,5,4.0,12.0,40,-99.99,,,-99.99,,2013-07-29 18:06:00,
2013-07-29 13:15:00,77.0,51.0,-100.00,North,5,6.0,9.0,40,-99.99,,,-99.99,,2013-07-29 18:15:00,
2013-07-29 13:27:00,77.0,51.0,-100.00,North,5,6.0,9.0,40,-99.99,,,-99.99,,2013-07-29 18:27:00,
2013-07-29 14:45:00,79.0,52.0,-100.00,North,5,8.0,11.0,39,-99.99,,,-99.99,,2013-07-29 19:45:00,
2013-07-29 14:59:00,79.0,52.0,-100.00,North,5,8.0,11.0,39,-99.99,,,-99.99,,2013-07-29 19:59:00,
2013-07-29 15:24:00,78.0,53.0,-100.00,North,5,9.0,15.0,42,-99.99,,,-99.99,,2013-07-29 20:24:00,
2013-07-29 15:47:00,77.0,52.0,-100.00,North,5,9.0,16.0,42,-99.99,,,-99.99,,2013-07-29 20:47:00,
2013-07-29 15:58:00,77.0,52.0,-100.00,North,5,9.0,16.0,42,-99.99,,,-99.99,,2013-07-29 20:58:00,
2013-07-29 16:18:00,77.0,53.0,-100.00,North,5,9.0,15.0,43,-99.99,,,-99.99,,2013-07-29 21:18:00,
2013-07-29 16:24:00,77.0,53.0,-100.00,North,5,9.0,15.0,43,-99.99,,,-99.99,,2013-07-29 21:24:00,
2013-07-29 17:00:00,77.0,53.0,-100.00,North,5,6.0,9.0,43,-99.99,,,-99.99,,2013-07-29 22:00:00,
2013-07-29 17:17:00,79.0,54.0,-100.00,North,5,4.0,7.0,43,-99.99,,,-99.99,,2013-07-29 22:17:00,
2013-07-29 17:25:00,79.0,54.0,-100.00,North,5,4.0,7.0,43,-99.99,,,-99.99,,2013-07-29 22:25:00,
2013-07-29 17:44:00,78.0,52.0,-100.00,North,5,6.0,7.0,41,-99.99,,,-99.99,,2013-07-29 22:44:00,
2013-07-29 17:57:00,78.0,52.0,-100.00,North,5,6.0,7.0,41,-99.99,,,-99.99,,2013-07-29 22:57:00,
2013-07-29 18:14:00,78.0,53.0,-100.00,North,5,6.0,7.0,42,-99.99,,,-99.99,,2013-07-29 23:14:00,
2013-07-29 18:26:00,78.0,53.0,-100.00,North,5,6.0,7.0,42,-99.99,,,-99.99,,2013-07-29 23:26:00,
2013-07-29 18:35:00,78.0,54.0,-100.00,North,5,4.0,6.0,45,-99.99,,,-99.99,,2013-07-29 23:35:00,
2013-07-29 19:08:00,78.0,55.0,-100.00,North,5,2.0,6.0,46,-99.99,,,-99.99,,2013-07-30 00:08:00,
2013-07-29 19:25:00,79.0,56.0,-100.00,North,5,2.0,4.0,45,-99.99,,,-99.99,,2013-07-30 00:25:00,
2013-07-29 19:34:00,79.0,56.0,-100.00,North,5,4.0,4.0,45,-99.99,,,-99.99,,2013-07-30 00:34:00,
2013-07-29 20:23:00,75.0,54.0,-100.00,North,5,6.0,7.0,48,-99.99,,,-99.99,,2013-07-30 01:23:00,
2013-07-29 20:37:00,74.0,54.0,-100.00,North,5,4.0,6.0,50,-99.99,,,-99.99,,2013-07-30 01:37:00,
2013-07-29 20:44:00,74.0,55.0,-100.00,North,5,4.0,6.0,52,-99.99,,,-99.99,,2013-07-30 01:44:00,
2013-07-29 21:00:00,74.0,55.0,-100.00,North,5,4.0,6.0,52,-99.99,,,-99.99,,2013-07-30 02:00:00,
2013-07-29 21:24:00,72.0,57.0,-100.00,North,5,4.0,8.0,58,-99.99,,,-99.99,,2013-07-30 02:24:00,
2013-07-29 21:45:00,71.0,57.0,-100.00,North,5,4.0,7.0,62,-99.99,,,-99.99,,2013-07-30 02:45:00,
2013-07-29 21:56:00,71.0,57.0,-100.00,North,5,4.0,7.0,62,-99.99,,,-99.99,,2013-07-30 02:56:00,
2013-07-29 22:08:00,71.0,58.0,-100.00,North,5,5.0,9.0,63,-99.99,,,-99.99,,2013-07-30 03:08:00,
2013-07-29 22:25:00,71.0,58.0,-100.00,North,5,4.0,7.0,64,-99.99,,,-99.99,,2013-07-30 03:25:00,
2013-07-29 22:56:00,71.0,58.0,-100.00,North,5,4.0,9.0,64,-99.99,,,-99.99,,2013-07-30 03:56:00,
2013-07-29 23:13:00,71.0,57.0,-100.00,North,5,5.0,8.0,63,-99.99,,,-99.99,,2013-07-30 04:13:00,
2013-07-29 23:23:00,71.0,57.0,-100.00,North,5,5.0,8.0,63,-99.99,,,-99.99,,2013-07-30 04:23:00,
2013-07-29 23:33:00,70.0,58.0,-100.00,North,5,4.0,9.0,64,-99.99,,,-99.99,,2013-07-30 04:33:00,
2013-07-29 23:43:00,70.0,58.0,-100.00,North,5,5.0,9.0,65,-99.99,,,-99.99,,2013-07-30 04:43:00,
2013-07-29 23:53:00,70.0,58.0,-100.00,North,5,5.0,9.0,65,-99.99,,,-99.99,,2013-07-30 04:53:00,